Logan, Iowa
Current Conditions -  °F | °C
As of 8:54 AM on Saturday 22 Nov 2014 (Local Time) from KTQE Reporting Station
Haze Haze  
Wind Chill: 32°   Ceiling: 400
Heat Index: 39°   Visibility: 3mi
Dew Point: 36°   Wind: 12mph
Humidity: 89%   Direction: 190°S
Pressure: 29.82"   Gusts: NA
Location:  41.64°N, 95.79°W
Report Text: KTQE 221454Z AUTO 19010KT 3SM BR OVC004 04/02 A2982 RMK AO2 SLP102 T00390022 58015
Loading
Personal Weather Stations






























Interactive Weather Map New forecast layout! Learn more

10-Day Weather Forecast

Advertisements
Track Severe Weather on mobile